Time;durP1;ratioP1;P1;durP2;ratioP2;P2;SDS_P1;SDS_P2;PMS_P1;PMS_P2;Temp;Humidity;BMP_temperature;BMP_pressure;BME280_temperature;BME280_humidity;BME280_pressure;Samples;Min_cycle;Max_cycle;Signal;HPM_P1;HPM_P2
2021/11/30 10:41:09;;;;;;;8.88;2.85;;;;;;;0.08;87.16;97264.38;5914132;23;20040;31
2021/11/30 10:43:35;;;;;;;8.40;3.25;;;;;;;0.27;87.49;97286.81;4839722;29;20005;-51
2021/11/30 10:46:00;;;;;;;6.50;2.25;;;;;;;0.17;86.04;97286.34;4826399;29;20030;-49
2021/11/30 10:48:26;;;;;;;9.32;3.08;;;;;;;0.17;86.33;97268.28;4842602;29;20032;-49
2021/11/30 10:50:55;;;;;;;9.27;3.08;;;;;;;0.16;87.96;97270.03;4841181;29;20030;-51
2021/11/30 10:53:21;;;;;;;10.77;3.35;;;;;;;0.29;86.79;97285.03;4841307;29;20512;-49
2021/11/30 10:55:49;;;;;;;6.07;2.75;;;;;;;0.22;86.39;97264.63;4840603;29;20490;-52
2021/11/30 10:58:14;;;;;;;10.27;3.20;;;;;;;0.16;87.69;97275.19;4842025;29;20113;-50
2021/11/30 11:00:40;;;;;;;11.23;4.07;;;;;;;0.16;87.41;97264.06;4841692;29;20417;-48
2021/11/30 11:05:33;;;;;;;10.38;3.60;;;;;;;0.19;87.33;97269.91;4855573;29;20022;-46
2021/11/30 11:08:12;;;;;;;8.10;2.88;;;;;;;0.14;87.11;97271.88;4842091;29;20026;-46
2021/11/30 11:10:42;;;;;;;6.47;2.63;;;;;;;0.25;87.36;97262.84;4842200;29;20025;-46
2021/11/30 11:13:22;;;;;;;9.65;3.22;;;;;;;0.09;88.38;97263.47;4846536;29;20388;-49
2021/11/30 11:15:49;;;;;;;9.23;2.40;;;;;;;0.08;87.99;97261.81;4842369;29;20030;-49
2021/11/30 11:18:22;;;;;;;8.18;2.50;;;;;;;0.01;87.80;97262.97;4835993;29;20121;-49
2021/11/30 11:20:48;;;;;;;8.18;2.40;;;;;;;0.13;87.77;97254.69;4841619;29;20036;-51
2021/11/30 11:23:19;;;;;;;7.68;2.05;;;;;;;0.03;88.71;97255.97;4838352;29;20021;-49
2021/11/30 11:25:44;;;;;;;5.97;2.22;;;;;;;0.23;88.44;97255.97;4841205;29;20152;-50
2021/11/30 11:28:10;;;;;;;7.65;2.53;;;;;;;0.03;88.03;97253.41;4841291;29;20030;-50
2021/11/30 11:30:35;;;;;;;5.82;2.22;;;;;;;0.11;87.94;97250.53;4825695;29;20046;-51
2021/11/30 11:33:00;;;;;;;7.82;2.90;;;;;;;0.13;89.22;97252.13;4840200;29;20052;-50
2021/11/30 11:35:26;;;;;;;7.30;2.65;;;;;;;0.17;88.38;97240.78;4841354;29;20032;-50
2021/11/30 11:37:53;;;;;;;6.88;2.17;;;;;;;0.09;88.06;97242.84;4841111;29;20030;-50
2021/11/30 11:40:19;;;;;;;6.20;2.13;;;;;;;0.16;87.93;97228.78;4838301;29;20033;-53
2021/11/30 11:42:44;;;;;;;9.95;2.70;;;;;;;0.19;89.24;97227.81;4841476;29;20097;-50
2021/11/30 11:45:09;;;;;;;7.10;2.28;;;;;;;0.33;88.20;97224.66;4841198;29;20497;-54
2021/11/30 11:47:35;;;;;;;5.63;1.98;;;;;;;0.23;88.36;97222.47;4839732;29;20030;-51
2021/11/30 11:50:09;;;;;;;8.40;2.72;;;;;;;0.16;88.98;97213.31;4807081;29;20030;-51
2021/11/30 11:52:37;;;;;;;5.25;1.95;;;;;;;0.26;87.54;97213.75;4823399;29;20038;-52
2021/11/30 11:55:07;;;;;;;6.35;2.50;;;;;;;0.12;88.82;97218.66;4822888;29;20046;-54
2021/11/30 11:57:33;;;;;;;5.43;1.98;;;;;;;0.09;88.49;97227.38;4821833;29;20060;-53
2021/11/30 12:00:18;;;;;;;5.82;1.80;;;;;;;0.13;88.58;97212.59;4838838;29;20037;-51
2021/11/30 12:02:49;;;;;;;6.40;2.10;;;;;;;0.20;88.59;97225.16;4840113;29;20054;-53
2021/11/30 12:05:14;;;;;;;6.00;2.15;;;;;;;0.28;88.42;97221.44;4840943;29;20594;-50
2021/11/30 12:07:51;;;;;;;10.48;4.75;;;;;;;0.27;88.17;97217.16;4839760;29;20117;-49
2021/11/30 12:10:24;;;;;;;9.82;3.75;;;;;;;0.31;89.51;97226.44;4840920;29;20056;-52
2021/11/30 12:12:59;;;;;;;13.10;5.00;;;;;;;0.42;88.11;97234.59;4839898;29;20505;-54
2021/11/30 12:15:26;;;;;;;6.53;1.95;;;;;;;0.33;89.16;97204.84;4840643;29;20133;-52
2021/11/30 12:17:51;;;;;;;7.30;2.70;;;;;;;0.30;88.61;97220.44;4840986;29;20060;-52
2021/11/30 12:20:17;;;;;;;8.57;3.22;;;;;;;0.35;88.36;97217.69;4824169;29;20054;-51
2021/11/30 12:22:50;;;;;;;4.97;1.42;;;;;;;0.52;88.11;97215.22;4841050;29;20022;-49
2021/11/30 12:25:24;;;;;;;5.15;1.65;;;;;;;0.44;88.22;97210.38;4839423;29;20090;-51
2021/11/30 12:27:50;;;;;;;11.30;3.25;;;;;;;0.54;87.74;97202.22;4840765;29;20065;-52
2021/11/30 12:30:47;;;;;;;6.15;2.03;;;;;;;0.45;87.32;97206.06;4840612;29;20086;-50
2021/11/30 12:33:20;;;;;;;5.00;1.63;;;;;;;0.52;88.03;97217.78;4839222;29;20550;-48
2021/11/30 12:35:53;;;;;;;6.03;1.75;;;;;;;0.51;87.99;97199.78;4840911;29;20488;-49
2021/11/30 12:38:23;;;;;;;9.45;3.58;;;;;;;0.60;88.40;97199.38;4840846;29;20034;-50
2021/11/30 12:40:49;;;;;;;62.75;14.40;;;;;;;0.56;88.39;97216.75;4840309;29;20492;-53
2021/11/30 12:43:18;;;;;;;40.55;10.70;;;;;;;0.45;88.22;97213.81;4840450;29;20094;-51
2021/11/30 12:45:48;;;;;;;31.60;9.40;;;;;;;0.49;87.65;97204.19;4840910;29;20022;-51
2021/11/30 12:48:18;;;;;;;18.10;5.70;;;;;;;0.50;88.17;97213.59;4840527;29;20034;-50
2021/11/30 12:50:43;;;;;;;24.65;8.93;;;;;;;0.53;88.58;97227.19;4840837;29;20026;-53
2021/11/30 12:53:09;;;;;;;7.65;2.88;;;;;;;0.51;87.93;97216.09;4840303;29;20033;-50
2021/11/30 12:55:52;;;;;;;6.95;2.92;;;;;;;0.76;87.67;97196.94;4840805;29;20466;-51
2021/11/30 12:58:49;;;;;;;5.57;2.15;;;;;;;0.82;86.82;97219.91;4840020;29;20074;-54
2021/11/30 13:01:23;;;;;;;5.85;2.00;;;;;;;0.83;86.26;97216.44;4820051;29;20518;-50
2021/11/30 13:03:49;;;;;;;12.57;3.30;;;;;;;0.85;86.60;97201.69;4820150;29;20499;-53
2021/11/30 13:06:15;;;;;;;18.80;5.82;;;;;;;0.79;87.30;97194.22;4819839;29;20035;-51
2021/11/30 13:09:02;;;;;;;25.60;7.70;;;;;;;0.75;88.14;97197.84;4820008;29;20443;-54
2021/11/30 13:11:31;;;;;;;10.30;3.08;;;;;;;0.75;87.68;97200.44;4820054;29;20054;-49
2021/11/30 13:14:06;;;;;;;23.80;5.38;;;;;;;0.73;86.96;97189.34;4819977;29;20034;-53
2021/11/30 13:16:33;;;;;;;8.05;3.08;;;;;;;0.82;88.34;97201.81;4819903;29;20129;-51
2021/11/30 13:19:06;;;;;;;18.00;5.20;;;;;;;0.79;87.16;97182.19;4819820;29;20030;-53
2021/11/30 13:21:37;;;;;;;13.07;3.70;;;;;;;0.91;87.15;97198.84;4819826;29;20042;-48
2021/11/30 13:24:12;;;;;;;5.53;2.40;;;;;;;1.00;87.23;97190.69;4819749;29;20076;-50
2021/11/30 13:26:38;;;;;;;17.67;6.35;;;;;;;0.83;87.69;97185.47;4819691;29;20045;-47
2021/11/30 13:29:04;;;;;;;10.13;3.40;;;;;;;1.00;86.81;97197.56;4819615;29;20038;-48
2021/11/30 13:31:29;;;;;;;8.73;2.88;;;;;;;1.04;86.81;97191.38;4819454;29;20492;-47
2021/11/30 13:33:55;;;;;;;8.00;3.53;;;;;;;1.07;87.05;97186.91;4804461;29;20038;-51
2021/11/30 13:36:27;;;;;;;4.47;1.73;;;;;;;1.13;85.75;97202.09;4825687;29;20038;-53
2021/11/30 13:38:52;;;;;;;6.70;2.67;;;;;;;1.16;85.90;97176.13;4840295;29;20487;-53
2021/11/30 13:41:18;;;;;;;7.47;2.95;;;;;;;1.07;86.33;97186.91;4839800;29;20048;-51
2021/11/30 13:43:48;;;;;;;10.00;3.78;;;;;;;1.08;86.09;97183.41;4839633;29;20395;-48
2021/11/30 13:46:15;;;;;;;6.60;2.65;;;;;;;1.09;85.75;97194.56;4842772;29;20061;-52
2021/11/30 13:48:45;;;;;;;4.57;1.85;;;;;;;1.06;85.99;97179.22;4843588;29;20033;-52
2021/11/30 13:51:19;;;;;;;10.25;3.55;;;;;;;1.05;86.59;97182.72;4843351;29;20029;-52
2021/11/30 13:53:53;;;;;;;16.77;6.07;;;;;;;1.00;86.20;97177.78;4843020;29;20402;-51
2021/11/30 13:59:45;;;;;;;7.55;3.63;;;;;;;1.18;85.37;97212.22;4843535;29;20060;-52
2021/11/30 14:02:07;;;;;;;14.82;5.30;;;;;;;1.18;86.44;97189.81;4842992;29;20034;-53
2021/11/30 14:04:33;;;;;;;12.70;5.05;;;;;;;1.19;86.26;97186.31;4842943;29;20033;-54
2021/11/30 14:07:01;;;;;;;42.33;13.57;;;;;;;1.19;86.52;97199.22;4843094;29;20455;-53
2021/11/30 14:09:28;;;;;;;136.57;36.97;;;;;;;1.18;86.51;97189.81;4843058;29;20509;-51
2021/11/30 14:12:07;;;;;;;34.90;9.95;;;;;;;1.20;86.30;97197.47;4843062;29;20450;-54
2021/11/30 14:14:34;;;;;;;11.63;6.13;;;;;;;1.23;86.26;97205.06;4842687;29;20083;-54
2021/11/30 14:17:04;;;;;;;7.32;3.60;;;;;;;1.25;86.23;97168.84;4841792;29;20018;-53
2021/11/30 14:19:40;;;;;;;4.85;2.42;;;;;;;1.24;86.10;97187.84;4843124;29;20038;-54
2021/11/30 14:22:10;;;;;;;5.82;2.30;;;;;;;1.35;85.26;97190.75;4842858;29;20030;-52
2021/11/30 14:25:12;;;;;;;10.18;3.95;;;;;;;1.43;85.37;97204.16;4842894;29;20037;-54
2021/11/30 14:27:41;;;;;;;7.75;3.35;;;;;;;1.34;85.02;97191.66;4840538;29;20046;-54
2021/11/30 14:30:11;;;;;;;5.72;2.60;;;;;;;1.31;86.31;97184.91;4840853;29;20049;-54
2021/11/30 14:32:37;;;;;;;6.72;2.88;;;;;;;1.30;85.36;97179.78;4840874;29;20081;-54
2021/11/30 14:35:05;;;;;;;6.82;3.20;;;;;;;1.38;85.15;97185.44;4840646;29;20069;-53
2021/11/30 14:37:31;;;;;;;6.18;2.67;;;;;;;1.48;84.71;97197.03;4840508;29;20504;-51
2021/11/30 14:40:15;;;;;;;7.97;3.58;;;;;;;1.47;84.90;97195.31;4840728;29;20565;-54
2021/11/30 14:42:42;;;;;;;7.60;3.00;;;;;;;1.59;84.53;97196.50;4840528;29;20065;-53
2021/11/30 14:45:25;;;;;;;6.40;2.67;;;;;;;1.58;84.37;97197.38;4840443;29;20026;-51
2021/11/30 14:47:53;;;;;;;9.55;4.10;;;;;;;1.71;83.78;97187.28;4826500;29;20037;-51
2021/11/30 14:50:22;;;;;;;7.32;3.15;;;;;;;1.68;84.04;97188.28;4840569;29;20038;-53
2021/11/30 14:52:49;;;;;;;11.10;4.25;;;;;;;1.59;84.14;97192.16;4840486;29;20025;-53
2021/11/30 14:55:25;;;;;;;11.05;4.45;;;;;;;1.60;84.43;97198.16;4840157;29;20173;-54
2021/11/30 14:58:13;;;;;;;8.57;3.78;;;;;;;1.67;84.13;97205.53;4840113;29;20045;-51
2021/11/30 15:00:46;;;;;;;10.15;4.47;;;;;;;1.60;84.74;97211.91;4840355;29;20143;-50
2021/11/30 15:03:16;;;;;;;15.60;5.90;;;;;;;1.71;83.84;97207.97;4841368;29;20042;-51
2021/11/30 15:05:47;;;;;;;11.60;4.85;;;;;;;1.75;83.98;97205.16;4842055;29;20029;-52
2021/11/30 15:08:29;;;;;;;15.68;6.15;;;;;;;1.75;84.26;97212.09;4842608;29;20026;-53
2021/11/30 15:10:54;;;;;;;11.43;3.85;;;;;;;1.74;84.45;97203.50;4842521;29;20078;-53
2021/11/30 15:13:19;;;;;;;10.35;3.65;;;;;;;1.90;83.13;97211.34;4842044;29;20050;-53
2021/11/30 15:15:48;;;;;;;8.50;3.78;;;;;;;1.92;83.12;97211.25;4842294;29;20038;-53
2021/11/30 15:18:16;;;;;;;9.35;3.65;;;;;;;1.83;83.03;97220.31;4842378;29;20033;-53
2021/11/30 15:20:41;;;;;;;6.22;2.45;;;;;;;1.92;82.56;97209.50;4842246;29;20037;-51
2021/11/30 15:23:07;;;;;;;12.15;4.47;;;;;;;1.93;83.65;97224.13;4842290;29;20030;-53
2021/11/30 15:25:32;;;;;;;12.93;4.63;;;;;;;1.92;83.22;97222.44;4841742;29;20030;-52
2021/11/30 15:27:58;;;;;;;17.45;6.72;;;;;;;1.90;82.87;97234.63;4841972;29;20029;-52
2021/11/30 15:30:23;;;;;;;26.77;7.85;;;;;;;1.78;83.64;97227.44;4842043;29;20036;-55
2021/11/30 15:32:48;;;;;;;25.95;9.15;;;;;;;1.74;83.82;97220.75;4841686;29;20044;-53
2021/11/30 15:35:14;;;;;;;40.60;14.13;;;;;;;1.85;84.06;97234.00;4841972;29;20447;-54
2021/11/30 15:37:41;;;;;;;36.85;17.58;;;;;;;1.95;83.23;97242.13;4841874;29;20105;-54
2021/11/30 15:40:07;;;;;;;104.93;33.53;;;;;;;1.85;83.31;97231.41;4842057;29;20073;-54
2021/11/30 15:42:32;;;;;;;30.73;9.25;;;;;;;1.87;83.37;97224.41;4841676;29;20041;-50
2021/11/30 15:44:57;;;;;;;30.73;12.18;;;;;;;1.90;83.25;97234.63;4841846;29;20037;-53
2021/11/30 15:47:23;;;;;;;18.58;7.63;;;;;;;1.98;82.50;97226.47;4841713;29;20051;-53
2021/11/30 15:49:48;;;;;;;31.33;11.68;;;;;;;1.95;83.11;97227.44;4841944;29;20067;-54
2021/11/30 15:52:14;;;;;;;23.58;8.13;;;;;;;1.99;82.87;97213.44;4841922;29;20050;-52
2021/11/30 15:54:45;;;;;;;16.52;6.30;;;;;;;2.00;82.51;97241.00;4855479;29;20029;-55
2021/11/30 15:57:27;;;;;;;19.67;6.88;;;;;;;2.01;83.47;97237.50;4841765;29;20444;-52
2021/11/30 15:59:57;;;;;;;13.05;5.38;;;;;;;1.89;84.27;97238.09;4841715;29;20036;-54
2021/11/30 16:02:26;;;;;;;18.83;6.53;;;;;;;1.87;84.27;97224.41;4841804;29;20036;-52
2021/11/30 16:04:52;;;;;;;17.13;5.22;;;;;;;1.96;83.79;97225.69;4841124;29;20046;-51
2021/11/30 16:07:17;;;;;;;29.75;10.25;;;;;;;1.85;84.46;97226.22;4841046;29;20030;-53
2021/11/30 16:09:43;;;;;;;17.13;4.75;;;;;;;1.97;83.67;97229.97;4841423;29;20052;-52
2021/11/30 16:12:08;;;;;;;22.25;7.03;;;;;;;1.95;82.79;97232.63;4841308;29;20111;-53
2021/11/30 16:14:34;;;;;;;10.82;3.90;;;;;;;2.04;82.75;97237.34;4841449;29;20030;-53
2021/11/30 16:16:59;;;;;;;26.15;8.07;;;;;;;1.98;83.18;97229.06;4840809;29;20029;-53
2021/11/30 16:19:28;;;;;;;16.80;6.13;;;;;;;1.97;82.93;97256.69;4841367;29;20044;-52
2021/11/30 16:21:54;;;;;;;22.88;6.70;;;;;;;2.02;82.80;97248.69;4841306;29;20026;-54
2021/11/30 16:24:20;;;;;;;22.77;7.00;;;;;;;1.98;83.25;97255.75;4841140;29;20489;-53
2021/11/30 16:26:45;;;;;;;14.02;5.07;;;;;;;1.90;83.22;97242.38;4840868;29;20033;-54
2021/11/30 16:29:10;;;;;;;17.00;5.55;;;;;;;1.95;83.44;97257.66;4841594;29;20386;-53
2021/11/30 16:31:37;;;;;;;14.70;5.03;;;;;;;1.82;84.28;97258.25;4841212;29;20094;-51
2021/11/30 16:34:05;;;;;;;104.38;26.85;;;;;;;1.72;85.31;97261.34;4841248;29;20037;-52
2021/11/30 16:36:34;;;;;;;12.20;4.72;;;;;;;1.85;84.89;97258.09;4839771;29;20104;-50
2021/11/30 16:38:59;;;;;;;10.50;3.47;;;;;;;1.82;85.29;97255.66;4841205;29;20034;-54
2021/11/30 16:41:25;;;;;;;11.65;5.30;;;;;;;1.92;84.29;97263.81;4840911;29;20025;-50
2021/11/30 16:43:51;;;;;;;8.18;3.47;;;;;;;1.87;84.91;97258.03;4841177;29;20066;-54
2021/11/30 16:46:17;;;;;;;8.93;3.85;;;;;;;1.92;85.23;97261.22;4840972;29;20037;-52
2021/11/30 16:48:42;;;;;;;10.18;5.53;;;;;;;1.96;83.88;97244.66;4841031;29;20042;-53
2021/11/30 16:51:07;;;;;;;13.63;6.40;;;;;;;1.86;85.27;97253.78;4841065;29;20371;-52
2021/11/30 16:53:33;;;;;;;10.98;5.22;;;;;;;1.83;85.22;97261.69;4840813;29;20030;-53
2021/11/30 16:55:58;;;;;;;14.52;9.23;;;;;;;1.99;85.05;97260.00;4840935;29;20026;-51
2021/11/30 16:58:24;;;;;;;10.07;4.65;;;;;;;1.99;84.30;97270.34;4840599;29;20034;-53
2021/11/30 17:00:49;;;;;;;7.97;3.58;;;;;;;1.96;84.41;97275.69;4839808;29;20112;-52
2021/11/30 17:03:15;;;;;;;11.15;6.68;;;;;;;1.98;84.65;97260.94;4839763;29;20029;-53
2021/11/30 17:05:40;;;;;;;14.27;7.70;;;;;;;2.02;85.24;97265.03;4840720;29;20026;-52
2021/11/30 17:08:06;;;;;;;19.20;12.65;;;;;;;2.07;85.66;97252.72;4840899;29;20040;-51
2021/11/30 17:10:31;;;;;;;8.95;4.47;;;;;;;2.13;84.53;97252.44;4840900;29;20402;-49
2021/11/30 17:12:58;;;;;;;7.05;2.78;;;;;;;2.12;83.96;97261.06;4840540;29;20089;-53
2021/11/30 17:15:24;;;;;;;6.25;2.70;;;;;;;2.05;85.13;97258.88;4839673;29;20030;-53
2021/11/30 17:17:49;;;;;;;8.02;3.67;;;;;;;2.02;85.12;97265.03;4840594;29;20025;-54
2021/11/30 17:20:15;;;;;;;8.05;3.70;;;;;;;2.07;85.40;97273.41;4842151;29;20026;-52
2021/11/30 17:22:47;;;;;;;5.70;2.70;;;;;;;2.10;85.11;97288.78;4844273;29;20058;-53
2021/11/30 17:25:13;;;;;;;;;;;;;;;2.28;84.13;97281.88;4843570;29;20034;-51
2021/11/30 17:27:42;;;;;;;9.88;4.10;;;;;;;2.21;84.46;97295.19;4843840;29;19991;-51
2021/11/30 17:30:08;;;;;;;9.85;5.32;;;;;;;2.23;84.79;97288.16;4843118;29;20034;-52
2021/11/30 17:32:33;;;;;;;35.15;12.95;;;;;;;2.08;85.17;97280.25;4843864;29;20038;-54
2021/11/30 17:34:58;;;;;;;11.55;5.40;;;;;;;2.09;84.99;97291.44;4843983;29;20029;-51
2021/11/30 17:37:24;;;;;;;17.17;8.02;;;;;;;2.17;84.93;97289.31;4843827;29;20047;-51
2021/11/30 17:39:49;;;;;;;20.60;8.77;;;;;;;2.19;84.96;97294.41;4843996;29;20032;-49
2021/11/30 17:42:15;;;;;;;16.38;7.72;;;;;;;2.19;84.88;97292.66;4843964;29;20034;-52
2021/11/30 17:44:40;;;;;;;12.82;6.05;;;;;;;2.27;84.51;97294.84;4843858;29;20034;-50
2021/11/30 17:47:05;;;;;;;9.00;4.03;;;;;;;2.32;83.94;97292.91;4842792;29;20062;-54
2021/11/30 17:49:33;;;;;;;21.23;8.23;;;;;;;2.24;84.56;97295.03;4843579;29;20031;-53
2021/11/30 17:52:01;;;;;;;21.33;7.78;;;;;;;2.22;84.31;97302.03;4842744;29;20447;-54
2021/11/30 17:54:26;;;;;;;32.53;10.98;;;;;;;2.37;83.70;97296.06;4857098;29;20108;-53
2021/11/30 17:56:52;;;;;;;55.20;16.33;;;;;;;2.26;84.99;97296.63;4843243;29;20029;-54
2021/11/30 17:59:17;;;;;;;10.30;5.15;;;;;;;2.39;83.18;97304.63;4843140;29;20044;-49
2021/11/30 18:01:45;;;;;;;12.63;5.15;;;;;;;2.38;84.28;97302.94;4843624;29;20037;-54
2021/11/30 18:04:10;;;;;;;8.35;3.83;;;;;;;2.38;83.59;97314.13;4843305;29;20045;-52
2021/11/30 18:06:35;;;;;;;17.58;7.53;;;;;;;2.43;84.07;97362.22;4843374;29;20037;-50
2021/11/30 18:09:01;;;;;;;10.52;4.93;;;;;;;2.41;83.76;97320.06;4843132;29;20049;-49
2021/11/30 18:11:27;;;;;;;8.60;3.55;;;;;;;2.43;83.43;97305.28;4841939;29;20120;-54
2021/11/30 18:13:52;;;;;;;10.82;4.72;;;;;;;2.46;83.65;97307.72;4843314;29;20109;-54
2021/11/30 18:16:18;;;;;;;10.40;4.88;;;;;;;2.59;83.21;97321.75;4843439;29;20030;-54
2021/11/30 18:18:44;;;;;;;10.25;3.50;;;;;;;2.63;82.88;97302.53;4842124;29;20026;-54
2021/11/30 18:21:09;;;;;;;8.02;3.15;;;;;;;2.49;83.58;97303.25;4842923;29;20202;-52
2021/11/30 18:23:34;;;;;;;7.60;3.30;;;;;;;2.47;83.51;97302.47;4842887;29;20030;-54
2021/11/30 18:26:00;;;;;;;7.60;2.83;;;;;;;2.73;82.40;97302.91;4843291;29;20108;-51
2021/11/30 18:28:25;;;;;;;8.60;3.50;;;;;;;2.62;82.74;97311.22;4842849;29;20034;-52
2021/11/30 18:30:51;;;;;;;6.93;2.95;;;;;;;2.62;82.58;97316.41;4842603;29;20478;-51
2021/11/30 18:33:18;;;;;;;6.55;2.95;;;;;;;2.69;82.37;97311.75;4842706;29;20086;-52
2021/11/30 18:35:44;;;;;;;6.40;2.60;;;;;;;2.63;82.87;97294.78;4843093;29;20510;-53
2021/11/30 18:38:10;;;;;;;8.77;3.53;;;;;;;2.66;82.54;97306.72;4843412;29;20037;-50
2021/11/30 18:40:35;;;;;;;7.15;2.90;;;;;;;2.60;83.05;97292.34;4842269;29;20165;-54
2021/11/30 18:43:01;;;;;;;6.75;2.60;;;;;;;2.67;82.87;97318.75;4842629;29;20490;-50
2021/11/30 18:45:27;;;;;;;5.80;2.47;;;;;;;2.57;83.17;97302.84;4842638;29;20069;-52
2021/11/30 18:47:52;;;;;;;5.97;2.53;;;;;;;2.63;82.75;97306.88;4842628;29;20041;-53
2021/11/30 18:50:18;;;;;;;7.47;2.53;;;;;;;2.73;82.15;97303.75;4842271;29;20493;-50
2021/11/30 18:52:43;;;;;;;5.53;2.50;;;;;;;2.61;82.58;97318.16;4842523;29;20038;-52
2021/11/30 18:55:09;;;;;;;5.18;2.40;;;;;;;2.66;82.81;97317.91;4842231;29;20034;-51
2021/11/30 18:57:35;;;;;;;4.80;2.60;;;;;;;2.69;81.94;97335.06;4842587;29;20021;-54
2021/11/30 19:00:03;;;;;;;6.05;2.28;;;;;;;2.73;82.13;97333.97;4842338;29;20034;-52
2021/11/30 19:02:28;;;;;;;8.27;2.75;;;;;;;2.67;82.45;97342.06;4840883;29;20548;-54
2021/11/30 19:04:53;;;;;;;5.80;2.55;;;;;;;2.70;82.95;97340.16;4842201;29;20030;-54
2021/11/30 19:07:19;;;;;;;5.75;2.35;;;;;;;2.69;82.50;97342.81;4840934;29;20040;-50
2021/11/30 19:09:44;;;;;;;7.43;2.90;;;;;;;2.81;82.01;97348.19;4840267;29;20041;-54
2021/11/30 19:12:11;;;;;;;6.50;2.70;;;;;;;2.79;82.45;97351.81;4841369;29;20042;-50
2021/11/30 19:14:37;;;;;;;5.45;2.40;;;;;;;2.74;82.39;97343.41;4841211;29;20062;-53
2021/11/30 19:17:02;;;;;;;5.85;2.40;;;;;;;2.76;82.33;97354.53;4841179;29;20074;-51
2021/11/30 19:19:31;;;;;;;5.55;2.53;;;;;;;2.89;81.87;97355.59;4840794;29;20100;-53
2021/11/30 19:21:56;;;;;;;5.05;2.47;;;;;;;2.83;82.57;97351.56;4839666;29;20500;-53
2021/11/30 19:24:21;;;;;;;4.53;1.90;;;;;;;2.94;82.30;97352.75;4841379;29;20033;-54
2021/11/30 19:26:47;;;;;;;5.93;2.85;;;;;;;2.74;83.00;97346.84;4840935;29;20479;-54
2021/11/30 19:29:12;;;;;;;6.40;2.47;;;;;;;2.89;81.92;97342.66;4841628;29;20026;-52
2021/11/30 19:31:38;;;;;;;5.97;2.50;;;;;;;2.97;82.24;97368.16;4841567;29;20029;-55
2021/11/30 19:34:03;;;;;;;7.05;3.08;;;;;;;2.99;81.90;97363.72;4840759;29;20402;-52
2021/11/30 19:36:29;;;;;;;15.43;4.43;;;;;;;3.03;81.92;97375.63;4839347;29;20029;-53
2021/11/30 19:38:56;;;;;;;21.70;4.97;;;;;;;2.96;81.78;97366.47;4840215;29;20098;-51
2021/11/30 19:41:22;;;;;;;17.67;5.50;;;;;;;2.98;81.75;97383.59;4839897;29;20033;-52
2021/11/30 19:43:49;;;;;;;6.72;3.05;;;;;;;3.07;81.82;97387.50;4839739;29;20033;-52
2021/11/30 19:46:14;;;;;;;46.13;9.23;;;;;;;3.05;82.38;97384.97;4838612;29;20034;-53
2021/11/30 19:48:40;;;;;;;7.07;3.45;;;;;;;3.04;81.97;97395.41;4840369;29;20185;-50
2021/11/30 19:51:07;;;;;;;42.60;13.27;;;;;;;3.12;81.80;97395.84;4840271;29;20037;-55
2021/11/30 19:53:33;;;;;;;149.25;33.38;;;;;;;2.98;82.27;97393.97;4840464;29;20112;-53
2021/11/30 19:55:59;;;;;;;32.67;9.38;;;;;;;2.97;82.25;97396.66;4840743;29;20042;-51
2021/11/30 19:58:24;;;;;;;31.50;12.43;;;;;;;2.97;82.43;97401.84;4848011;29;20033;-55
2021/11/30 20:06:02;;;;;;;7.50;3.58;;;;;;;2.97;82.39;97389.72;4840152;29;20574;-53
2021/11/30 20:08:27;;;;;;;10.38;5.47;;;;;;;2.96;82.50;97388.03;4840226;29;20042;-54
2021/11/30 20:10:52;;;;;;;8.15;3.80;;;;;;;2.99;81.76;97403.41;4838724;29;20038;-51
2021/11/30 20:13:19;;;;;;;7.18;3.03;;;;;;;3.02;82.15;97392.88;4839261;29;20113;-54
2021/11/30 20:15:52;;;;;;;9.30;4.57;;;;;;;3.13;81.77;97375.97;4836690;29;20037;-51
2021/11/30 20:18:19;;;;;;;8.30;3.70;;;;;;;3.04;82.31;97393.66;4838748;29;20549;-52
2021/11/30 20:20:44;;;;;;;8.43;3.70;;;;;;;3.21;81.66;97397.16;4840235;29;20090;-52
2021/11/30 20:23:11;;;;;;;8.23;3.75;;;;;;;3.22;81.63;97396.22;4840068;29;20034;-52
2021/11/30 20:25:37;;;;;;;9.60;4.72;;;;;;;3.17;81.91;97390.47;4839285;29;20044;-51
2021/11/30 20:28:02;;;;;;;6.70;3.17;;;;;;;3.14;81.90;97385.44;4837624;29;20030;-53
2021/11/30 20:30:28;;;;;;;10.27;4.95;;;;;;;3.10;82.45;97397.72;4840005;29;20490;-51
2021/11/30 20:32:53;;;;;;;11.68;6.38;;;;;;;3.13;82.72;97381.97;4839101;29;20045;-53
2021/11/30 20:40:46;;;;;;;12.70;6.47;;;;;;;3.04;82.54;97380.72;4838417;29;20066;-49
2021/11/30 20:43:12;;;;;;;11.60;5.05;;;;;;;3.11;81.77;97378.63;4839673;29;20456;-52
2021/11/30 20:45:42;;;;;;;12.80;6.85;;;;;;;3.14;81.82;97385.44;4839556;29;20037;-50
2021/11/30 20:48:08;;;;;;;8.30;3.58;;;;;;;3.16;82.07;97393.94;4840150;29;20041;-53
2021/11/30 20:50:34;;;;;;;7.03;3.33;;;;;;;3.23;81.97;97397.88;4838845;29;20036;-49
2021/11/30 20:52:59;;;;;;;10.60;4.78;;;;;;;3.22;82.39;97391.03;4839757;29;20034;-50
2021/11/30 20:55:25;;;;;;;8.02;3.40;;;;;;;3.25;82.26;97383.09;4842060;29;20482;-50
2021/11/30 20:57:51;;;;;;;6.40;2.90;;;;;;;3.25;81.85;97391.72;4843973;29;20033;-52
2021/11/30 21:00:16;;;;;;;7.10;3.35;;;;;;;3.32;81.61;97392.22;4843623;29;20113;-52
2021/11/30 21:02:42;;;;;;;16.20;5.03;;;;;;;3.33;81.59;97386.13;4843662;29;20074;-51
2021/11/30 21:05:10;;;;;;;47.50;12.82;;;;;;;3.29;82.10;97397.56;4845452;29;20033;-54
2021/11/30 21:07:35;;;;;;;20.35;6.05;;;;;;;3.30;82.00;97391.47;4842453;29;20466;-50
2021/11/30 21:10:01;;;;;;;14.13;4.93;;;;;;;3.31;81.44;97406.13;4844110;29;20032;-53
2021/11/30 21:12:29;;;;;;;8.60;3.90;;;;;;;3.37;81.55;97416.16;4841681;29;20495;-50
2021/11/30 21:14:56;;;;;;;11.57;4.70;;;;;;;3.24;82.49;97397.00;4840872;29;20034;-51
2021/11/30 21:17:22;;;;;;;10.80;5.32;;;;;;;3.41;81.21;97401.31;4844613;29;20026;-52
2021/11/30 21:19:47;;;;;;;9.85;4.03;;;;;;;3.34;81.37;97395.59;4842007;29;20042;-52
2021/11/30 21:22:13;;;;;;;8.45;4.10;;;;;;;3.48;81.21;97389.69;4842379;29;20479;-50
2021/11/30 21:24:38;;;;;;;9.30;4.50;;;;;;;3.42;81.17;97388.25;4844104;29;20033;-51
2021/11/30 21:27:04;;;;;;;8.00;3.60;;;;;;;3.44;81.59;97398.53;4837624;29;20061;-52
2021/11/30 21:29:30;;;;;;;7.65;2.85;;;;;;;3.39;81.72;97391.00;4843037;29;20103;-50
2021/11/30 21:31:55;;;;;;;8.10;3.28;;;;;;;3.45;81.29;97416.59;4841828;29;20368;-51
2021/11/30 21:34:21;;;;;;;10.68;4.38;;;;;;;3.53;81.32;97440.34;4842171;29;20038;-52
2021/11/30 21:36:46;;;;;;;6.50;2.95;;;;;;;3.54;81.12;97415.25;4844252;29;20235;-51
2021/11/30 21:39:11;;;;;;;9.05;3.42;;;;;;;3.50;81.85;97413.75;4842070;29;20506;-49
2021/11/30 21:41:37;;;;;;;8.27;4.43;;;;;;;3.61;81.26;97416.63;4842770;29;20482;-49
2021/11/30 21:44:02;;;;;;;7.13;3.45;;;;;;;3.47;81.41;97413.91;4838050;29;20041;-49
2021/11/30 21:46:28;;;;;;;8.32;4.03;;;;;;;3.44;81.90;97419.25;4856894;29;20026;-48
2021/11/30 21:48:53;;;;;;;7.68;3.88;;;;;;;3.49;81.66;97417.28;4842002;29;20034;-48
2021/11/30 21:51:21;;;;;;;9.18;4.47;;;;;;;3.50;81.63;97408.56;4842640;29;20077;-49
2021/11/30 21:53:47;;;;;;;8.75;3.78;;;;;;;3.48;82.13;97400.88;4842434;29;20101;-49
2021/11/30 21:56:12;;;;;;;7.20;3.30;;;;;;;3.55;81.75;97411.78;4842988;29;20038;-48
